sensor_id;sensor_type;location;lat;lon;timestamp;pressure;altitude;pressure_sealevel;temperature;humidity
33161;BME280;19522;45.656;11.302;2023-04-06T00:02:16;98606.00;;;3.48;55.29
33161;BME280;19522;45.656;11.302;2023-04-06T00:04:41;98588.72;;;3.21;56.04
33161;BME280;19522;45.656;11.302;2023-04-06T00:07:07;98612.31;;;3.27;56.14
33161;BME280;19522;45.656;11.302;2023-04-06T00:09:32;98642.16;;;3.34;56.53
33161;BME280;19522;45.656;11.302;2023-04-06T00:11:57;98649.22;;;3.35;56.46
33161;BME280;19522;45.656;11.302;2023-04-06T00:14:23;98616.84;;;3.36;56.00
33161;BME280;19522;45.656;11.302;2023-04-06T00:16:48;98634.66;;;3.47;55.91
33161;BME280;19522;45.656;11.302;2023-04-06T00:19:14;98625.47;;;3.40;56.37
33161;BME280;19522;45.656;11.302;2023-04-06T00:21:39;98642.19;;;3.63;55.31
33161;BME280;19522;45.656;11.302;2023-04-06T00:24:05;98633.72;;;3.58;55.23
33161;BME280;19522;45.656;11.302;2023-04-06T00:26:31;98637.81;;;3.62;54.94
33161;BME280;19522;45.656;11.302;2023-04-06T00:28:56;98636.81;;;3.53;55.77
33161;BME280;19522;45.656;11.302;2023-04-06T00:31:23;98634.22;;;3.32;56.59
33161;BME280;19522;45.656;11.302;2023-04-06T00:33:49;98642.41;;;3.21;57.23
33161;BME280;19522;45.656;11.302;2023-04-06T00:36:15;98597.47;;;2.82;58.37
33161;BME280;19522;45.656;11.302;2023-04-06T00:38:40;98639.00;;;3.28;57.70
33161;BME280;19522;45.656;11.302;2023-04-06T00:41:06;98637.75;;;3.42;56.75
33161;BME280;19522;45.656;11.302;2023-04-06T00:43:31;98635.63;;;3.36;57.21
33161;BME280;19522;45.656;11.302;2023-04-06T00:45:57;98599.00;;;3.16;57.07
33161;BME280;19522;45.656;11.302;2023-04-06T00:48:23;98599.44;;;3.21;57.28
33161;BME280;19522;45.656;11.302;2023-04-06T00:50:48;98631.41;;;3.34;57.18
33161;BME280;19522;45.656;11.302;2023-04-06T00:53:14;98566.06;;;3.04;57.79
33161;BME280;19522;45.656;11.302;2023-04-06T00:55:39;98616.28;;;3.33;57.97
33161;BME280;19522;45.656;11.302;2023-04-06T00:58:05;98619.53;;;3.36;57.81
33161;BME280;19522;45.656;11.302;2023-04-06T01:00:32;98606.22;;;3.25;58.39
33161;BME280;19522;45.656;11.302;2023-04-06T01:02:57;98614.59;;;3.41;57.54
33161;BME280;19522;45.656;11.302;2023-04-06T01:05:23;98588.16;;;3.27;57.23
33161;BME280;19522;45.656;11.302;2023-04-06T01:07:48;98594.34;;;3.27;57.36
33161;BME280;19522;45.656;11.302;2023-04-06T01:10:28;98609.50;;;3.38;57.94
33161;BME280;19522;45.656;11.302;2023-04-06T01:12:53;98588.88;;;3.29;57.81
33161;BME280;19522;45.656;11.302;2023-04-06T01:15:20;98607.34;;;3.13;58.80
33161;BME280;19522;45.656;11.302;2023-04-06T01:17:46;98610.19;;;3.31;58.80
33161;BME280;19522;45.656;11.302;2023-04-06T01:20:11;98608.94;;;3.45;58.23
33161;BME280;19522;45.656;11.302;2023-04-06T01:22:37;98608.22;;;3.42;58.25
33161;BME280;19522;45.656;11.302;2023-04-06T01:25:03;98569.16;;;2.99;58.93
33161;BME280;19522;45.656;11.302;2023-04-06T01:27:28;98570.25;;;2.56;60.29
33161;BME280;19522;45.656;11.302;2023-04-06T01:29:55;98601.78;;;2.63;60.46
33161;BME280;19522;45.656;11.302;2023-04-06T01:32:20;98603.44;;;2.55;61.32
33161;BME280;19522;45.656;11.302;2023-04-06T01:34:46;98605.84;;;2.58;61.48
33161;BME280;19522;45.656;11.302;2023-04-06T01:37:12;98595.41;;;2.55;61.52
33161;BME280;19522;45.656;11.302;2023-04-06T01:39:37;98597.28;;;2.64;61.60
33161;BME280;19522;45.656;11.302;2023-04-06T01:42:03;98583.16;;;2.62;61.53
33161;BME280;19522;45.656;11.302;2023-04-06T01:44:28;98606.88;;;2.67;61.75
33161;BME280;19522;45.656;11.302;2023-04-06T01:46:55;98585.19;;;2.79;61.68
33161;BME280;19522;45.656;11.302;2023-04-06T01:49:22;98595.75;;;3.12;60.57
33161;BME280;19522;45.656;11.302;2023-04-06T01:51:47;98523.88;;;2.65;60.25
33161;BME280;19522;45.656;11.302;2023-04-06T01:54:13;98595.75;;;3.12;60.19
33161;BME280;19522;45.656;11.302;2023-04-06T01:56:38;98601.66;;;3.06;60.21
33161;BME280;19522;45.656;11.302;2023-04-06T01:59:04;98599.66;;;2.98;60.34
33161;BME280;19522;45.656;11.302;2023-04-06T02:01:29;98597.66;;;2.90;61.06
33161;BME280;19522;45.656;11.302;2023-04-06T02:03:54;98532.84;;;2.44;61.08
33161;BME280;19522;45.656;11.302;2023-04-06T02:06:20;98598.44;;;2.71;61.82
33161;BME280;19522;45.656;11.302;2023-04-06T02:08:45;98595.47;;;2.74;62.16
33161;BME280;19522;45.656;11.302;2023-04-06T02:11:11;98576.09;;;2.61;62.16
33161;BME280;19522;45.656;11.302;2023-04-06T02:13:36;98603.41;;;2.86;61.94
33161;BME280;19522;45.656;11.302;2023-04-06T02:16:02;98602.44;;;2.87;61.74
33161;BME280;19522;45.656;11.302;2023-04-06T02:18:30;98584.13;;;2.61;62.10
33161;BME280;19522;45.656;11.302;2023-04-06T02:20:56;98601.34;;;2.58;62.75
33161;BME280;19522;45.656;11.302;2023-04-06T02:23:21;98567.16;;;2.51;62.64
33161;BME280;19522;45.656;11.302;2023-04-06T02:25:47;98588.50;;;2.62;62.68
33161;BME280;19522;45.656;11.302;2023-04-06T02:28:12;98545.06;;;2.37;62.32
33161;BME280;19522;45.656;11.302;2023-04-06T02:30:38;98614.16;;;2.86;62.29
33161;BME280;19522;45.656;11.302;2023-04-06T02:33:03;98608.22;;;2.82;62.74
33161;BME280;19522;45.656;11.302;2023-04-06T02:35:30;98605.75;;;2.69;57.32
33161;BME280;19522;45.656;11.302;2023-04-06T02:37:56;98596.97;;;2.98;53.52
33161;BME280;19522;45.656;11.302;2023-04-06T02:40:22;98580.31;;;3.04;52.05
33161;BME280;19522;45.656;11.302;2023-04-06T02:42:47;98606.38;;;3.33;51.16
33161;BME280;19522;45.656;11.302;2023-04-06T02:45:13;98608.22;;;3.42;51.20
33161;BME280;19522;45.656;11.302;2023-04-06T02:47:38;98577.53;;;3.16;56.60
33161;BME280;19522;45.656;11.302;2023-04-06T02:50:04;98621.81;;;3.31;58.32
33161;BME280;19522;45.656;11.302;2023-04-06T02:52:30;98622.06;;;3.28;59.05
33161;BME280;19522;45.656;11.302;2023-04-06T02:54:55;98622.44;;;3.14;58.93
33161;BME280;19522;45.656;11.302;2023-04-06T02:57:21;98626.41;;;3.09;58.56
33161;BME280;19522;45.656;11.302;2023-04-06T02:59:46;98603.88;;;2.91;58.87
33161;BME280;19522;45.656;11.302;2023-04-06T03:02:12;98622.63;;;3.32;56.93
33161;BME280;19522;45.656;11.302;2023-04-06T03:04:37;98633.31;;;3.12;58.66
33161;BME280;19522;45.656;11.302;2023-04-06T03:07:03;98605.69;;;2.80;59.82
33161;BME280;19522;45.656;11.302;2023-04-06T03:09:28;98634.13;;;3.03;60.20
33161;BME280;19522;45.656;11.302;2023-04-06T03:11:54;98616.91;;;3.05;59.87
33161;BME280;19522;45.656;11.302;2023-04-06T03:14:20;98631.94;;;3.18;59.83
33161;BME280;19522;45.656;11.302;2023-04-06T03:16:48;98594.84;;;2.92;59.93
33161;BME280;19522;45.656;11.302;2023-04-06T03:19:14;98605.44;;;2.93;60.46
33161;BME280;19522;45.656;11.302;2023-04-06T03:21:40;98611.06;;;2.90;60.70
33161;BME280;19522;45.656;11.302;2023-04-06T03:24:06;98581.84;;;2.97;59.60
33161;BME280;19522;45.656;11.302;2023-04-06T03:26:32;98615.84;;;3.27;59.02
33161;BME280;19522;45.656;11.302;2023-04-06T03:28:58;98630.84;;;3.30;59.59
33161;BME280;19522;45.656;11.302;2023-04-06T03:31:23;98635.75;;;3.25;59.95
33161;BME280;19522;45.656;11.302;2023-04-06T03:33:49;98637.13;;;3.60;58.85
33161;BME280;19522;45.656;11.302;2023-04-06T03:36:14;98635.69;;;3.56;59.48
33161;BME280;19522;45.656;11.302;2023-04-06T03:38:40;98636.50;;;3.47;59.37
33161;BME280;19522;45.656;11.302;2023-04-06T03:41:06;98637.22;;;3.49;58.81
33161;BME280;19522;45.656;11.302;2023-04-06T03:43:31;98638.06;;;3.49;58.39
33161;BME280;19522;45.656;11.302;2023-04-06T03:45:56;98637.06;;;3.40;58.58
33161;BME280;19522;45.656;11.302;2023-04-06T03:48:22;98638.31;;;3.26;59.03
33161;BME280;19522;45.656;11.302;2023-04-06T03:50:47;98633.94;;;3.25;58.84
33161;BME280;19522;45.656;11.302;2023-04-06T03:53:13;98639.63;;;3.42;58.15
33161;BME280;19522;45.656;11.302;2023-04-06T03:55:38;98642.16;;;3.43;58.00
33161;BME280;19522;45.656;11.302;2023-04-06T03:58:04;98625.06;;;3.35;57.64
33161;BME280;19522;45.656;11.302;2023-04-06T04:00:30;98637.09;;;3.50;57.23
33161;BME280;19522;45.656;11.302;2023-04-06T04:02:56;98641.66;;;3.69;55.49
33161;BME280;19522;45.656;11.302;2023-04-06T04:05:22;98598.34;;;3.43;54.17
33161;BME280;19522;45.656;11.302;2023-04-06T04:07:53;98631.44;;;3.63;54.11
33161;BME280;19522;45.656;11.302;2023-04-06T04:10:18;98634.69;;;3.67;54.79
33161;BME280;19522;45.656;11.302;2023-04-06T04:12:44;98614.88;;;3.38;54.80
33161;BME280;19522;45.656;11.302;2023-04-06T04:15:10;98635.53;;;3.57;54.71
33161;BME280;19522;45.656;11.302;2023-04-06T04:17:35;98640.75;;;3.49;55.28
33161;BME280;19522;45.656;11.302;2023-04-06T04:20:01;98635.25;;;3.51;55.85
33161;BME280;19522;45.656;11.302;2023-04-06T04:22:26;98634.81;;;3.46;55.91
33161;BME280;19522;45.656;11.302;2023-04-06T04:24:53;98644.31;;;3.50;56.05
33161;BME280;19522;45.656;11.302;2023-04-06T04:27:18;98605.25;;;3.26;55.98
33161;BME280;19522;45.656;11.302;2023-04-06T04:29:44;98636.66;;;3.55;55.57
33161;BME280;19522;45.656;11.302;2023-04-06T04:32:10;98589.84;;;3.28;54.90
33161;BME280;19522;45.656;11.302;2023-04-06T04:34:35;98637.38;;;3.67;53.83
33161;BME280;19522;45.656;11.302;2023-04-06T04:37:01;98608.78;;;3.36;54.35
33161;BME280;19522;45.656;11.302;2023-04-06T04:39:26;98612.47;;;3.35;54.47
33161;BME280;19522;45.656;11.302;2023-04-06T04:41:52;98619.81;;;3.33;54.31
33161;BME280;19522;45.656;11.302;2023-04-06T04:44:18;98641.63;;;3.50;54.71
33161;BME280;19522;45.656;11.302;2023-04-06T04:46:44;98581.75;;;3.18;54.39
33161;BME280;19522;45.656;11.302;2023-04-06T04:49:10;98638.78;;;3.61;54.61
33161;BME280;19522;45.656;11.302;2023-04-06T04:51:35;98639.50;;;3.63;53.43
33161;BME280;19522;45.656;11.302;2023-04-06T04:54:01;98609.94;;;3.43;53.31
33161;BME280;19522;45.656;11.302;2023-04-06T04:56:26;98631.19;;;3.66;53.10
33161;BME280;19522;45.656;11.302;2023-04-06T04:58:52;98632.56;;;3.51;53.37
33161;BME280;19522;45.656;11.302;2023-04-06T05:01:18;98630.56;;;3.53;53.28
33161;BME280;19522;45.656;11.302;2023-04-06T05:03:43;98639.38;;;3.65;52.71
33161;BME280;19522;45.656;11.302;2023-04-06T05:06:09;98587.31;;;3.36;52.44
33161;BME280;19522;45.656;11.302;2023-04-06T05:08:34;98634.97;;;3.54;53.06
33161;BME280;19522;45.656;11.302;2023-04-06T05:11:00;98633.38;;;3.41;53.52
33161;BME280;19522;45.656;11.302;2023-04-06T05:13:25;98599.72;;;3.27;52.86
33161;BME280;19522;45.656;11.302;2023-04-06T05:15:51;98632.38;;;3.33;53.50
33161;BME280;19522;45.656;11.302;2023-04-06T05:18:16;98639.72;;;3.21;54.23
33161;BME280;19522;45.656;11.302;2023-04-06T05:20:42;98642.50;;;3.19;54.66
33161;BME280;19522;45.656;11.302;2023-04-06T05:23:08;98591.19;;;2.93;54.45
33161;BME280;19522;45.656;11.302;2023-04-06T05:25:33;98642.22;;;3.13;55.17
33161;BME280;19522;45.656;11.302;2023-04-06T05:27:59;98638.44;;;3.25;54.85
33161;BME280;19522;45.656;11.302;2023-04-06T05:30:25;98636.25;;;3.09;55.84
33161;BME280;19522;45.656;11.302;2023-04-06T05:32:50;98620.31;;;3.07;55.65
33161;BME280;19522;45.656;11.302;2023-04-06T05:35:16;98628.00;;;3.32;54.81
33161;BME280;19522;45.656;11.302;2023-04-06T05:37:42;98623.19;;;3.25;54.89
33161;BME280;19522;45.656;11.302;2023-04-06T05:40:08;98642.16;;;3.34;54.48
33161;BME280;19522;45.656;11.302;2023-04-06T05:42:40;98628.28;;;3.28;54.50
33161;BME280;19522;45.656;11.302;2023-04-06T05:45:08;98636.31;;;3.28;54.86
33161;BME280;19522;45.656;11.302;2023-04-06T05:47:34;98620.88;;;3.01;55.62
33161;BME280;19522;45.656;11.302;2023-04-06T05:50:00;98624.94;;;3.05;55.57
33161;BME280;19522;45.656;11.302;2023-04-06T05:52:26;98636.09;;;3.01;55.66
33161;BME280;19522;45.656;11.302;2023-04-06T05:54:51;98643.88;;;3.04;55.33
33161;BME280;19522;45.656;11.302;2023-04-06T05:57:17;98647.00;;;3.09;55.47
33161;BME280;19522;45.656;11.302;2023-04-06T05:59:43;98614.25;;;2.74;55.68
33161;BME280;19522;45.656;11.302;2023-04-06T06:02:08;98640.34;;;3.03;55.39
33161;BME280;19522;45.656;11.302;2023-04-06T06:04:34;98650.50;;;3.00;56.74
33161;BME280;19522;45.656;11.302;2023-04-06T06:07:00;98651.13;;;3.23;55.06
33161;BME280;19522;45.656;11.302;2023-04-06T06:09:25;98644.66;;;3.25;54.34
33161;BME280;19522;45.656;11.302;2023-04-06T06:11:51;98646.28;;;3.57;54.12
33161;BME280;19522;45.656;11.302;2023-04-06T06:14:17;98650.53;;;3.99;53.14
33161;BME280;19522;45.656;11.302;2023-04-06T06:16:43;98651.69;;;4.16;52.64
33161;BME280;19522;45.656;11.302;2023-04-06T06:19:08;98629.19;;;4.17;52.64
33161;BME280;19522;45.656;11.302;2023-04-06T06:21:34;98655.63;;;4.51;52.62
33161;BME280;19522;45.656;11.302;2023-04-06T06:23:59;98617.53;;;4.56;52.10
33161;BME280;19522;45.656;11.302;2023-04-06T06:26:25;98637.78;;;4.88;51.59
33161;BME280;19522;45.656;11.302;2023-04-06T06:28:51;98644.34;;;5.13;50.39
33161;BME280;19522;45.656;11.302;2023-04-06T06:31:16;98617.75;;;5.38;49.32
33161;BME280;19522;45.656;11.302;2023-04-06T06:33:43;98593.59;;;5.83;47.04
33161;BME280;19522;45.656;11.302;2023-04-06T06:36:09;98591.44;;;6.49;46.14
33161;BME280;19522;45.656;11.302;2023-04-06T06:38:34;98641.78;;;7.27;44.85
33161;BME280;19522;45.656;11.302;2023-04-06T06:41:00;98636.31;;;7.54;43.71
33161;BME280;19522;45.656;11.302;2023-04-06T06:43:25;98616.25;;;7.64;42.98
33161;BME280;19522;45.656;11.302;2023-04-06T06:45:51;98630.63;;;7.73;42.88
33161;BME280;19522;45.656;11.302;2023-04-06T06:48:16;98629.25;;;7.69;42.14
33161;BME280;19522;45.656;11.302;2023-04-06T06:50:42;98622.84;;;7.70;41.83
33161;BME280;19522;45.656;11.302;2023-04-06T06:53:07;98636.19;;;7.80;41.88
33161;BME280;19522;45.656;11.302;2023-04-06T06:55:33;98633.00;;;7.85;41.80
33161;BME280;19522;45.656;11.302;2023-04-06T06:57:58;98607.63;;;7.69;41.23
33161;BME280;19522;45.656;11.302;2023-04-06T07:00:24;98584.78;;;7.39;42.61
33161;BME280;19522;45.656;11.302;2023-04-06T07:02:49;98606.09;;;7.58;42.79
33161;BME280;19522;45.656;11.302;2023-04-06T07:05:16;98625.38;;;7.80;42.52
33161;BME280;19522;45.656;11.302;2023-04-06T07:07:41;98622.88;;;7.95;42.16
33161;BME280;19522;45.656;11.302;2023-04-06T07:10:08;98631.56;;;7.47;41.86
33161;BME280;19522;45.656;11.302;2023-04-06T07:12:33;98630.16;;;6.92;42.41
33161;BME280;19522;45.656;11.302;2023-04-06T07:14:59;98615.19;;;6.72;43.77
33161;BME280;19522;45.656;11.302;2023-04-06T07:17:25;98585.84;;;6.77;42.78
33161;BME280;19522;45.656;11.302;2023-04-06T07:19:50;98622.72;;;7.29;42.29
33161;BME280;19522;45.656;11.302;2023-04-06T07:22:16;98591.47;;;7.26;40.88
33161;BME280;19522;45.656;11.302;2023-04-06T07:24:41;98622.84;;;7.70;40.12
33161;BME280;19522;45.656;11.302;2023-04-06T07:27:07;98618.44;;;7.61;37.90
33161;BME280;19522;45.656;11.302;2023-04-06T07:29:32;98608.19;;;7.98;37.73
33161;BME280;19522;45.656;11.302;2023-04-06T07:31:58;98610.38;;;8.35;38.27
33161;BME280;19522;45.656;11.302;2023-04-06T07:34:23;98603.94;;;8.53;36.46
33161;BME280;19522;45.656;11.302;2023-04-06T07:36:49;98604.97;;;8.19;35.76
33161;BME280;19522;45.656;11.302;2023-04-06T07:39:15;98591.44;;;8.27;34.86
33161;BME280;19522;45.656;11.302;2023-04-06T07:41:40;98582.66;;;8.08;35.17
33161;BME280;19522;45.656;11.302;2023-04-06T07:44:06;98552.22;;;8.31;35.89
33161;BME280;19522;45.656;11.302;2023-04-06T07:46:31;98598.78;;;8.91;34.95
33161;BME280;19522;45.656;11.302;2023-04-06T07:48:58;98589.38;;;8.79;35.48
33161;BME280;19522;45.656;11.302;2023-04-06T07:51:24;98568.88;;;8.76;34.74
33161;BME280;19522;45.656;11.302;2023-04-06T07:53:51;98572.41;;;8.85;35.39
33161;BME280;19522;45.656;11.302;2023-04-06T07:56:17;98593.94;;;9.26;35.05
33161;BME280;19522;45.656;11.302;2023-04-06T07:58:43;98594.22;;;9.00;34.63
33161;BME280;19522;45.656;11.302;2023-04-06T08:01:08;98593.00;;;9.02;35.76
33161;BME280;19522;45.656;11.302;2023-04-06T08:03:34;98598.50;;;9.26;35.36
33161;BME280;19522;45.656;11.302;2023-04-06T08:06:00;98578.47;;;9.35;34.62
33161;BME280;19522;45.656;11.302;2023-04-06T08:08:26;98557.41;;;9.14;34.86
33161;BME280;19522;45.656;11.302;2023-04-06T08:10:52;98570.13;;;9.45;35.46
33161;BME280;19522;45.656;11.302;2023-04-06T08:13:17;98581.94;;;9.20;35.57
33161;BME280;19522;45.656;11.302;2023-04-06T08:15:43;98541.53;;;9.02;36.48
33161;BME280;19522;45.656;11.302;2023-04-06T08:18:09;98579.91;;;9.23;36.30
33161;BME280;19522;45.656;11.302;2023-04-06T08:20:35;98563.38;;;9.01;35.66
33161;BME280;19522;45.656;11.302;2023-04-06T08:23:01;98571.19;;;9.35;36.37
33161;BME280;19522;45.656;11.302;2023-04-06T08:25:26;98551.81;;;9.47;35.42
33161;BME280;19522;45.656;11.302;2023-04-06T08:27:52;98573.69;;;9.92;36.58
33161;BME280;19522;45.656;11.302;2023-04-06T08:30:18;98580.19;;;9.59;35.58
33161;BME280;19522;45.656;11.302;2023-04-06T08:32:47;98577.06;;;9.71;34.94
33161;BME280;19522;45.656;11.302;2023-04-06T08:35:13;98558.63;;;9.89;35.12
33161;BME280;19522;45.656;11.302;2023-04-06T08:37:38;98551.59;;;9.80;35.66
33161;BME280;19522;45.656;11.302;2023-04-06T08:40:05;98559.59;;;9.96;34.44
33161;BME280;19522;45.656;11.302;2023-04-06T08:42:44;98574.13;;;10.04;35.63
33161;BME280;19522;45.656;11.302;2023-04-06T08:45:16;98507.91;;;10.13;35.48
33161;BME280;19522;45.656;11.302;2023-04-06T08:47:42;98563.06;;;10.82;33.89
33161;BME280;19522;45.656;11.302;2023-04-06T08:50:08;98566.75;;;10.12;34.67
33161;BME280;19522;45.656;11.302;2023-04-06T08:52:34;98552.19;;;9.67;35.56
33161;BME280;19522;45.656;11.302;2023-04-06T08:55:00;98564.13;;;10.04;35.49
33161;BME280;19522;45.656;11.302;2023-04-06T08:57:26;98567.72;;;9.96;35.74
33161;BME280;19522;45.656;11.302;2023-04-06T08:59:52;98549.19;;;10.62;35.88
33161;BME280;19522;45.656;11.302;2023-04-06T09:02:19;98552.00;;;10.68;34.65
33161;BME280;19522;45.656;11.302;2023-04-06T09:04:49;98561.56;;;10.79;34.26
33161;BME280;19522;45.656;11.302;2023-04-06T09:07:17;98539.13;;;11.22;34.34
33161;BME280;19522;45.656;11.302;2023-04-06T09:09:43;98537.78;;;10.96;33.83
33161;BME280;19522;45.656;11.302;2023-04-06T09:12:42;98556.38;;;11.14;35.27
33161;BME280;19522;45.656;11.302;2023-04-06T09:15:20;98555.75;;;10.82;34.48
33161;BME280;19522;45.656;11.302;2023-04-06T09:17:46;98556.38;;;11.14;35.89
33161;BME280;19522;45.656;11.302;2023-04-06T09:20:12;98530.78;;;11.23;34.91
33161;BME280;19522;45.656;11.302;2023-04-06T09:22:39;98554.25;;;10.95;35.31
33161;BME280;19522;45.656;11.302;2023-04-06T09:25:06;98548.88;;;11.16;34.51
33161;BME280;19522;45.656;11.302;2023-04-06T09:27:33;98545.50;;;11.14;34.17
33161;BME280;19522;45.656;11.302;2023-04-06T09:30:06;98551.22;;;11.56;36.53
33161;BME280;19522;45.656;11.302;2023-04-06T09:32:32;98547.03;;;11.53;33.79
33161;BME280;19522;45.656;11.302;2023-04-06T09:35:07;98543.38;;;11.10;33.57
33161;BME280;19522;45.656;11.302;2023-04-06T09:37:33;98539.44;;;10.82;34.27
33161;BME280;19522;45.656;11.302;2023-04-06T09:40:04;98541.31;;;10.67;34.82
33161;BME280;19522;45.656;11.302;2023-04-06T09:42:30;98524.00;;;10.53;35.40
33161;BME280;19522;45.656;11.302;2023-04-06T09:44:56;98495.06;;;10.75;34.77
33161;BME280;19522;45.656;11.302;2023-04-06T09:47:22;98538.28;;;11.21;35.02
33161;BME280;19522;45.656;11.302;2023-04-06T09:49:56;98538.94;;;11.23;33.63
33161;BME280;19522;45.656;11.302;2023-04-06T09:52:26;98532.41;;;10.73;33.78
33161;BME280;19522;45.656;11.302;2023-04-06T09:54:52;98536.56;;;10.69;34.61
33161;BME280;19522;45.656;11.302;2023-04-06T09:57:25;98489.25;;;10.48;34.98
33161;BME280;19522;45.656;11.302;2023-04-06T10:00:07;98525.28;;;11.02;36.50
33161;BME280;19522;45.656;11.302;2023-04-06T10:07:54;98510.84;;;11.16;34.39
33161;BME280;19522;45.656;11.302;2023-04-06T10:10:21;98486.88;;;11.05;34.59
33161;BME280;19522;45.656;11.302;2023-04-06T10:12:47;98482.75;;;11.09;34.43
33161;BME280;19522;45.656;11.302;2023-04-06T10:15:13;98502.22;;;11.13;35.02
33161;BME280;19522;45.656;11.302;2023-04-06T10:17:38;98486.91;;;11.27;35.46
33161;BME280;19522;45.656;11.302;2023-04-06T10:20:41;98490.13;;;11.15;34.47
33161;BME280;19522;45.656;11.302;2023-04-06T10:23:19;98502.06;;;11.36;34.97
33161;BME280;19522;45.656;11.302;2023-04-06T10:26:15;98494.03;;;11.28;37.22
33161;BME280;19522;45.656;11.302;2023-04-06T10:28:43;98485.69;;;11.29;33.76
33161;BME280;19522;45.656;11.302;2023-04-06T10:31:09;98490.91;;;11.09;33.72
33161;BME280;19522;45.656;11.302;2023-04-06T10:33:34;98472.19;;;11.58;34.98
33161;BME280;19522;45.656;11.302;2023-04-06T10:36:33;98470.09;;;11.38;32.66
33161;BME280;19522;45.656;11.302;2023-04-06T10:39:00;98479.94;;;11.39;33.46
33161;BME280;19522;45.656;11.302;2023-04-06T10:41:41;98476.81;;;11.20;33.43
33161;BME280;19522;45.656;11.302;2023-04-06T10:44:07;98475.94;;;11.57;33.80
33161;BME280;19522;45.656;11.302;2023-04-06T10:46:33;98465.03;;;12.00;33.30
33161;BME280;19522;45.656;11.302;2023-04-06T10:49:12;98465.28;;;12.34;34.08
33161;BME280;19522;45.656;11.302;2023-04-06T10:51:38;98468.31;;;11.74;33.18
33161;BME280;19522;45.656;11.302;2023-04-06T10:54:08;98451.09;;;11.45;33.29
33161;BME280;19522;45.656;11.302;2023-04-06T10:56:36;98469.63;;;11.56;33.79
33161;BME280;19522;45.656;11.302;2023-04-06T10:59:04;98460.69;;;11.84;33.63
33161;BME280;19522;45.656;11.302;2023-04-06T11:01:30;98423.09;;;11.94;32.52
33161;BME280;19522;45.656;11.302;2023-04-06T11:03:57;98417.97;;;12.41;32.25
33161;BME280;19522;45.656;11.302;2023-04-06T11:06:27;98413.06;;;12.65;31.70
33161;BME280;19522;45.656;11.302;2023-04-06T11:08:55;98436.72;;;12.58;32.08
33161;BME280;19522;45.656;11.302;2023-04-06T11:11:25;98443.50;;;12.75;32.34
33161;BME280;19522;45.656;11.302;2023-04-06T11:13:56;98442.97;;;13.00;31.81
33161;BME280;19522;45.656;11.302;2023-04-06T11:19:02;98435.97;;;12.36;30.64
33161;BME280;19522;45.656;11.302;2023-04-06T11:21:35;98431.28;;;12.23;32.94
33161;BME280;19522;45.656;11.302;2023-04-06T11:29:15;98421.66;;;12.27;31.49
33161;BME280;19522;45.656;11.302;2023-04-06T11:31:49;98411.66;;;12.76;31.92
33161;BME280;19522;45.656;11.302;2023-04-06T11:34:22;98416.38;;;12.54;32.64
33161;BME280;19522;45.656;11.302;2023-04-06T11:36:54;98405.59;;;12.81;32.27
33161;BME280;19522;45.656;11.302;2023-04-06T11:39:21;98407.75;;;13.05;31.67
33161;BME280;19522;45.656;11.302;2023-04-06T11:41:54;98397.91;;;12.49;31.12
33161;BME280;19522;45.656;11.302;2023-04-06T11:44:35;98399.63;;;12.57;33.06
33161;BME280;19522;45.656;11.302;2023-04-06T11:47:02;98385.66;;;12.73;32.76
33161;BME280;19522;45.656;11.302;2023-04-06T11:49:29;98397.53;;;13.34;32.26
33161;BME280;19522;45.656;11.302;2023-04-06T11:51:56;98384.16;;;13.39;31.26
33161;BME280;19522;45.656;11.302;2023-04-06T11:54:32;98388.13;;;13.30;31.45
33161;BME280;19522;45.656;11.302;2023-04-06T11:56:59;98385.63;;;13.76;31.30
33161;BME280;19522;45.656;11.302;2023-04-06T11:59:26;98386.47;;;13.76;31.36
33161;BME280;19522;45.656;11.302;2023-04-06T12:01:52;98363.31;;;13.05;32.00
33161;BME280;19522;45.656;11.302;2023-04-06T12:04:18;98369.28;;;13.49;30.71
33161;BME280;19522;45.656;11.302;2023-04-06T12:06:44;98369.47;;;13.67;30.29
33161;BME280;19522;45.656;11.302;2023-04-06T12:09:10;98365.00;;;13.19;32.00
33161;BME280;19522;45.656;11.302;2023-04-06T12:11:37;98367.16;;;13.58;30.91
33161;BME280;19522;45.656;11.302;2023-04-06T12:14:10;98355.00;;;13.53;30.93
33161;BME280;19522;45.656;11.302;2023-04-06T12:16:37;98326.03;;;13.52;30.63
33161;BME280;19522;45.656;11.302;2023-04-06T12:19:03;98289.91;;;13.17;30.77
33161;BME280;19522;45.656;11.302;2023-04-06T12:21:33;98350.75;;;13.17;30.28
33161;BME280;19522;45.656;11.302;2023-04-06T12:24:01;98337.72;;;12.99;30.94
33161;BME280;19522;45.656;11.302;2023-04-06T12:26:29;98353.22;;;12.99;30.71
33161;BME280;19522;45.656;11.302;2023-04-06T12:28:59;98306.31;;;13.30;31.62
33161;BME280;19522;45.656;11.302;2023-04-06T12:31:36;98338.00;;;13.45;30.43
33161;BME280;19522;45.656;11.302;2023-04-06T12:34:11;98338.63;;;13.74;30.05
33161;BME280;19522;45.656;11.302;2023-04-06T12:36:41;98330.13;;;14.15;30.34
33161;BME280;19522;45.656;11.302;2023-04-06T12:39:10;98334.84;;;13.68;29.72
33161;BME280;19522;45.656;11.302;2023-04-06T12:41:38;98329.59;;;13.53;30.27
33161;BME280;19522;45.656;11.302;2023-04-06T12:44:14;98328.97;;;13.78;30.41
33161;BME280;19522;45.656;11.302;2023-04-06T12:46:42;98291.81;;;14.42;31.08
33161;BME280;19522;45.656;11.302;2023-04-06T12:49:10;98310.44;;;14.98;29.08
33161;BME280;19522;45.656;11.302;2023-04-06T12:51:40;98310.94;;;15.45;28.93
33161;BME280;19522;45.656;11.302;2023-04-06T12:54:09;98233.72;;;14.54;27.75
33161;BME280;19522;45.656;11.302;2023-04-06T12:56:37;98278.34;;;14.41;28.63
33161;BME280;19522;45.656;11.302;2023-04-06T12:59:02;98302.03;;;15.24;28.99
33161;BME280;19522;45.656;11.302;2023-04-06T13:01:28;98304.97;;;15.30;27.78
33161;BME280;19522;45.656;11.302;2023-04-06T13:03:55;98301.16;;;15.56;28.97
33161;BME280;19522;45.656;11.302;2023-04-06T13:06:20;98293.72;;;15.63;27.64
33161;BME280;19522;45.656;11.302;2023-04-06T13:08:47;98271.38;;;15.92;28.31
33161;BME280;19522;45.656;11.302;2023-04-06T13:11:15;98276.41;;;15.44;27.24